Time;durP1;ratioP1;P1;durP2;ratioP2;P2;SDS_P1;SDS_P2;PMS_P1;PMS_P2;Temp;Humidity;BMP_temperature;BMP_pressure;BME280_temperature;BME280_humidity;BME280_pressure;Samples;Min_cycle;Max_cycle;Signal;HPM_P1;HPM_P2
2022/05/05 00:16:48;;;;;;;2.40;2.20;;;15.50;35.50;;;;;;10217725;28;20774;-79
2022/05/05 03:04:25;;;;;;;2.87;2.67;;;14.90;37.60;;;;;;10291089;28;20305;-79
2022/05/05 03:23:07;;;;;;;3.43;3.13;;;14.90;37.50;;;;;;10178293;28;20272;-79
2022/05/05 03:29:01;;;;;;;2.90;2.70;;;14.90;37.60;;;;;;10177692;28;20228;-79
2022/05/05 03:34:58;;;;;;;3.07;2.87;;;14.80;37.50;;;;;;10167226;28;20245;-78
2022/05/05 03:40:55;;;;;;;3.20;3.00;;;14.80;37.80;;;;;;10190289;28;20237;-79
2022/05/05 03:45:58;;;;;;;2.53;2.33;;;14.80;38.00;;;;;;10221914;28;20273;-79
2022/05/05 03:51:02;;;;;;;2.83;2.63;;;14.70;36.90;;;;;;10224503;28;20229;-79
2022/05/05 03:56:06;;;;;;;2.90;2.70;;;14.70;37.20;;;;;;10213437;28;20252;-78
2022/05/05 04:01:13;;;;;;;3.03;2.80;;;14.70;37.70;;;;;;10348446;28;20722;-78
2022/05/05 04:06:19;;;;;;;3.90;3.60;;;14.70;37.30;;;;;;10357185;28;20218;-79
2022/05/05 04:11:24;;;;;;;3.83;3.53;;;14.70;37.20;;;;;;10359851;28;20969;-78
2022/05/05 04:16:27;;;;;;;3.77;3.47;;;14.60;37.90;;;;;;10357536;28;20246;-78
2022/05/05 04:21:31;;;;;;;4.20;3.80;;;14.60;37.60;;;;;;10367928;28;20273;-78
2022/05/05 04:26:36;;;;;;;4.60;3.40;;;14.60;37.90;;;;;;10354785;28;20227;-79
2022/05/05 04:31:40;;;;;;;3.37;3.17;;;14.60;38.10;;;;;;10335418;28;20226;-79
2022/05/05 04:36:44;;;;;;;3.60;3.30;;;14.50;38.00;;;;;;10348422;28;20318;-74
2022/05/05 04:41:48;;;;;;;4.50;4.20;;;14.60;38.10;;;;;;10341811;28;20316;-74
2022/05/05 04:46:52;;;;;;;3.77;3.47;;;14.60;38.60;;;;;;10349657;28;20619;-73
2022/05/05 04:51:55;;;;;;;4.30;3.90;;;14.60;38.00;;;;;;10343544;28;20292;-73
2022/05/05 04:57:00;;;;;;;4.63;4.23;;;14.70;38.40;;;;;;10342706;28;20238;-73
2022/05/05 05:02:04;;;;;;;4.10;3.80;;;14.70;38.90;;;;;;10344961;28;20717;-76
2022/05/05 05:07:07;;;;;;;3.97;3.67;;;14.70;38.60;;;;;;10349500;28;20239;-75
2022/05/05 05:12:12;;;;;;;4.13;3.83;;;14.70;38.70;;;;;;10326414;28;20226;-75
2022/05/05 05:17:16;;;;;;;5.80;4.10;;;14.70;39.50;;;;;;10339436;28;20313;-75
2022/05/05 05:22:19;;;;;;;4.07;3.77;;;14.70;39.00;;;;;;10341775;28;20268;-75
2022/05/05 05:27:25;;;;;;;3.80;3.57;;;14.70;39.80;;;;;;10341284;28;20237;-75
2022/05/05 05:32:28;;;;;;;4.00;3.70;;;14.80;39.80;;;;;;10341515;28;20589;-75
2022/05/05 05:37:31;;;;;;;3.97;3.67;;;14.80;39.30;;;;;;10346335;28;20233;-75
2022/05/05 05:42:35;;;;;;;4.20;3.90;;;14.90;39.50;;;;;;10342206;28;20709;-75
2022/05/05 05:47:39;;;;;;;5.80;5.27;;;14.90;40.10;;;;;;10336931;28;20229;-75
2022/05/05 05:52:42;;;;;;;5.17;4.67;;;15.00;39.80;;;;;;10344704;28;20226;-75
2022/05/05 05:57:46;;;;;;;7.07;6.47;;;15.20;40.20;;;;;;10337380;28;20238;-75
2022/05/05 06:08:10;;;;;;;9.97;9.17;;;15.50;40.40;;;;;;10341375;28;20230;-75
2022/05/05 06:13:15;;;;;;;7.77;7.07;;;15.70;40.30;;;;;;10343024;28;20596;-75
2022/05/05 06:18:18;;;;;;;9.90;8.90;;;15.80;40.90;;;;;;10338240;28;20730;-75
2022/05/05 06:23:21;;;;;;;9.57;8.87;;;15.90;40.40;;;;;;10338127;28;20231;-75
2022/05/05 06:28:26;;;;;;;9.70;8.83;;;16.00;40.30;;;;;;10341640;28;20245;-75
2022/05/05 06:33:29;;;;;;;10.67;9.70;;;16.10;40.70;;;;;;10339654;28;20230;-75
2022/05/05 06:38:32;;;;;;;10.57;9.67;;;16.20;40.30;;;;;;10339798;28;20226;-75
2022/05/05 06:43:37;;;;;;;10.50;9.60;;;16.30;40.20;;;;;;10343693;28;20269;-75
2022/05/05 06:48:41;;;;;;;9.57;8.87;;;16.30;40.30;;;;;;10336544;28;20229;-75
2022/05/05 06:53:44;;;;;;;9.43;8.70;;;16.40;39.90;;;;;;10338436;28;20313;-74
2022/05/05 06:58:48;;;;;;;10.47;9.67;;;16.50;39.90;;;;;;10336525;28;20237;-74
2022/05/05 07:05:23;;;;;;;10.87;9.90;;;16.60;40.50;;;;;;10336400;28;20237;-75
2022/05/05 07:14:39;;;;;;;12.73;11.67;;;16.70;40.30;;;;;;10339183;28;20226;-74
2022/05/05 07:19:42;;;;;;;11.37;10.53;;;16.80;40.70;;;;;;10335219;28;20798;-75
2022/05/05 07:24:46;;;;;;;12.97;11.80;;;16.80;40.20;;;;;;10332889;28;20229;-75
2022/05/05 07:29:50;;;;;;;12.07;11.07;;;16.90;40.50;;;;;;10336155;28;20237;-74
2022/05/05 07:34:54;;;;;;;12.10;11.10;;;17.00;41.40;;;;;;10344236;28;20210;-75
2022/05/05 07:39:57;;;;;;;12.77;11.47;;;17.20;40.70;;;;;;10346311;28;20313;-75
2022/05/05 07:45:02;;;;;;;10.87;9.93;;;17.30;40.60;;;;;;10347554;28;20224;-75
2022/05/05 07:50:11;;;;;;;10.53;9.73;;;17.40;41.20;;;;;;10304572;28;20743;-74
2022/05/05 07:55:14;;;;;;;11.43;10.43;;;17.60;40.90;;;;;;10304863;28;20227;-73
2022/05/05 08:00:21;;;;;;;12.50;11.50;;;17.80;40.80;;;;;;10303704;28;20227;-73
2022/05/05 08:05:24;;;;;;;12.20;11.20;;;18.10;40.90;;;;;;10303514;28;20697;-74
2022/05/05 08:10:29;;;;;;;11.90;11.00;;;18.20;40.20;;;;;;10305893;28;20233;-73
2022/05/05 08:15:34;;;;;;;12.27;11.17;;;18.40;40.30;;;;;;10303445;28;20219;-73
2022/05/05 08:20:37;;;;;;;12.63;11.50;;;18.50;40.30;;;;;;10308980;28;20239;-73
2022/05/05 08:31:02;;;;;;;10.93;9.93;;;18.80;39.80;;;;;;10304829;28;20230;-73
2022/05/05 08:36:07;;;;;;;11.20;10.30;;;18.90;40.00;;;;;;10338933;28;20231;-73
2022/05/05 08:41:12;;;;;;;11.77;10.77;;;19.00;40.10;;;;;;10344592;28;20226;-74
2022/05/05 08:46:23;;;;;;;11.20;10.30;;;19.10;39.60;;;;;;10349862;28;20231;-74
2022/05/05 08:51:28;;;;;;;9.90;9.10;;;19.20;39.70;;;;;;10344149;28;20225;-73
2022/05/05 08:56:31;;;;;;;9.40;8.60;;;19.40;39.00;;;;;;10343044;28;20242;-74
2022/05/05 09:01:39;;;;;;;11.17;10.17;;;19.50;38.70;;;;;;10342496;28;20219;-73
2022/05/05 09:06:47;;;;;;;11.60;10.67;;;19.60;38.50;;;;;;10340854;28;20230;-74
2022/05/05 09:12:06;;;;;;;10.60;9.73;;;19.70;38.20;;;;;;10340879;28;20226;-73
2022/05/05 09:17:13;;;;;;;10.73;9.83;;;19.80;38.40;;;;;;10299411;28;20222;-73
2022/05/05 09:22:19;;;;;;;10.37;9.50;;;19.90;37.90;;;;;;10310344;28;20230;-77
2022/05/05 09:27:24;;;;;;;9.37;8.57;;;20.00;37.40;;;;;;10313732;28;20249;-71
2022/05/05 09:32:30;;;;;;;8.03;7.43;;;20.10;37.50;;;;;;10305801;28;20230;-73
2022/05/05 09:37:33;;;;;;;7.67;7.07;;;20.20;37.50;;;;;;10296721;28;20241;-72
2022/05/05 09:42:38;;;;;;;9.13;8.43;;;20.30;37.60;;;;;;10307235;28;20231;-75
2022/05/05 09:47:43;;;;;;;9.30;8.50;;;20.50;38.20;;;;;;10304604;28;20252;-75
2022/05/05 09:58:10;;;;;;;8.00;7.37;;;20.80;37.40;;;;;;10303733;28;20774;-75
2022/05/05 10:08:45;;;;;;;7.80;7.10;;;21.20;36.40;;;;;;10304024;28;20230;-75
2022/05/05 10:13:50;;;;;;;6.23;5.83;;;21.40;36.40;;;;;;10303920;28;20223;-75
2022/05/05 10:18:54;;;;;;;6.77;6.17;;;21.60;36.20;;;;;;10300156;28;20239;-75
2022/05/05 10:24:07;;;;;;;6.40;5.90;;;21.80;35.80;;;;;;10306972;28;20232;-75
2022/05/05 10:29:35;;;;;;;5.70;5.30;;;22.00;35.40;;;;;;10306116;28;20592;-75
2022/05/05 10:34:40;;;;;;;5.57;5.17;;;22.20;34.30;;;;;;10305648;28;20225;-75
2022/05/05 10:39:51;;;;;;;6.00;5.60;;;22.30;34.50;;;;;;10302835;28;20262;-75
2022/05/05 10:45:15;;;;;;;3.83;3.53;;;22.50;34.60;;;;;;10309336;28;20235;-75
2022/05/05 10:50:29;;;;;;;3.93;3.73;;;22.60;32.40;;;;;;10299945;28;20226;-75
2022/05/05 10:55:35;;;;;;;3.30;3.00;;;22.90;34.10;;;;;;10305587;28;20242;-75
2022/05/05 11:00:59;;;;;;;4.17;3.77;;;23.00;32.50;;;;;;10308740;28;20223;-75
2022/05/05 11:06:18;;;;;;;3.50;3.27;;;23.20;32.20;;;;;;10341256;28;20233;-75
2022/05/05 11:22:09;;;;;;;4.33;3.93;;;23.40;33.10;;;;;;10337176;28;20229;-73
2022/05/05 11:27:13;;;;;;;4.17;3.87;;;23.50;31.20;;;;;;10338267;28;20237;-72
2022/05/05 11:32:16;;;;;;;4.50;4.10;;;23.70;31.90;;;;;;10332664;28;20227;-73
2022/05/05 11:37:21;;;;;;;4.73;4.30;;;23.70;31.70;;;;;;10321746;28;20233;-73
2022/05/05 11:42:24;;;;;;;3.97;3.73;;;23.70;30.80;;;;;;10322381;28;20699;-72
2022/05/05 11:47:27;;;;;;;4.40;4.10;;;23.70;31.20;;;;;;10335032;28;20230;-72
2022/05/05 11:52:34;;;;;;;4.23;3.93;;;23.80;31.20;;;;;;10340648;28;20229;-72
2022/05/05 11:57:38;;;;;;;3.63;3.20;;;23.90;29.70;;;;;;10331279;28;20245;-72
2022/05/05 12:02:41;;;;;;;3.40;3.20;;;24.00;30.40;;;;;;10337187;28;20314;-73
2022/05/05 12:07:52;;;;;;;3.60;3.40;;;24.10;30.60;;;;;;10338773;28;20235;-72
2022/05/05 12:13:01;;;;;;;4.23;3.27;;;24.20;29.70;;;;;;10336150;28;20860;-72
2022/05/05 12:18:16;;;;;;;3.40;3.20;;;24.20;28.80;;;;;;10335035;28;20231;-73
2022/05/05 12:23:23;;;;;;;3.63;3.33;;;24.30;29.20;;;;;;10337253;28;20246;-78
2022/05/05 12:28:29;;;;;;;3.87;3.57;;;24.30;28.20;;;;;;10346120;28;20238;-77
2022/05/05 12:33:37;;;;;;;3.70;3.40;;;24.30;28.80;;;;;;10335685;28;20222;-78
2022/05/05 12:38:42;;;;;;;3.50;3.20;;;24.20;28.20;;;;;;10341178;28;20760;-78
2022/05/05 12:43:45;;;;;;;3.20;3.00;;;24.10;28.80;;;;;;10346950;28;20218;-78
2022/05/05 12:48:53;;;;;;;3.80;3.50;;;24.20;29.40;;;;;;10345404;28;20226;-78
2022/05/05 12:59:46;;;;;;;3.47;3.23;;;24.40;28.30;;;;;;10266175;28;20264;-74
2022/05/05 13:04:49;;;;;;;3.80;3.60;;;24.50;28.60;;;;;;10336540;28;20594;-75
2022/05/05 13:09:54;;;;;;;3.77;3.47;;;24.50;28.50;;;;;;10340495;28;20226;-75
2022/05/05 13:14:57;;;;;;;4.13;3.83;;;24.40;28.10;;;;;;10350118;28;20310;-75
2022/05/05 13:20:00;;;;;;;3.37;3.17;;;24.40;28.30;;;;;;10352019;28;20222;-75
2022/05/05 13:25:06;;;;;;;3.40;3.20;;;24.30;28.20;;;;;;10349914;28;20318;-75
2022/05/05 13:30:11;;;;;;;3.60;3.40;;;24.30;28.10;;;;;;10349452;28;20227;-75
2022/05/05 13:35:14;;;;;;;3.50;3.23;;;24.30;28.20;;;;;;10346906;28;20218;-75
2022/05/05 13:40:19;;;;;;;3.43;3.13;;;24.30;28.00;;;;;;10345897;28;20223;-75
2022/05/05 13:45:22;;;;;;;3.20;2.90;;;24.30;27.40;;;;;;10356250;28;20226;-74
2022/05/05 13:50:26;;;;;;;3.40;3.07;;;24.30;28.20;;;;;;10347412;28;20761;-75
2022/05/05 13:55:32;;;;;;;3.47;3.20;;;24.40;28.30;;;;;;10344973;28;20234;-75
2022/05/05 14:00:35;;;;;;;3.43;3.23;;;24.50;28.10;;;;;;10342789;28;20699;-75
2022/05/05 14:05:38;;;;;;;3.67;2.90;;;24.50;28.40;;;;;;10352182;28;20222;-75
2022/05/05 14:16:00;;;;;;;4.13;3.23;;;24.60;27.40;;;;;;10279788;28;20604;-74
2022/05/05 14:21:04;;;;;;;3.40;3.10;;;24.50;27.80;;;;;;10316838;28;20218;-75
2022/05/05 14:26:10;;;;;;;3.07;2.87;;;24.50;27.60;;;;;;10310573;28;20237;-75
2022/05/05 14:31:13;;;;;;;3.30;3.10;;;24.50;27.00;;;;;;10311480;28;20237;-73
2022/05/05 14:36:17;;;;;;;3.30;3.10;;;24.50;27.10;;;;;;10298982;28;20230;-73
2022/05/05 14:41:21;;;;;;;3.07;2.87;;;24.50;27.20;;;;;;10302376;28;20227;-76
2022/05/05 14:46:25;;;;;;;3.07;2.87;;;24.40;26.80;;;;;;10308712;28;20226;-74
2022/05/05 14:51:33;;;;;;;3.13;2.93;;;24.40;27.20;;;;;;10305616;28;20241;-74
2022/05/05 14:56:37;;;;;;;3.13;2.90;;;24.40;27.20;;;;;;10303295;28;20241;-74
2022/05/05 15:01:41;;;;;;;3.03;2.83;;;24.50;26.80;;;;;;10304876;28;20231;-74
2022/05/05 15:06:48;;;;;;;3.23;3.00;;;24.40;27.00;;;;;;10305616;28;20231;-75
2022/05/05 15:11:53;;;;;;;3.10;2.90;;;24.40;26.80;;;;;;10307666;28;20231;-74
2022/05/05 15:16:59;;;;;;;3.00;2.80;;;24.30;26.50;;;;;;10300966;28;20219;-74
2022/05/05 15:22:04;;;;;;;3.40;3.20;;;24.40;26.80;;;;;;10344051;28;20672;-76
2022/05/05 15:27:09;;;;;;;3.30;3.03;;;24.40;26.70;;;;;;10350986;28;20245;-76
2022/05/05 15:32:12;;;;;;;3.50;3.00;;;24.30;26.00;;;;;;10357586;28;20226;-77
2022/05/05 15:37:16;;;;;;;3.00;2.70;;;24.30;26.30;;;;;;10351827;28;20225;-77
2022/05/05 15:42:21;;;;;;;2.90;2.70;;;24.20;26.60;;;;;;10358758;28;20250;-78
2022/05/05 15:47:26;;;;;;;3.10;2.90;;;24.10;26.50;;;;;;10338818;28;20234;-74
2022/05/05 15:52:32;;;;;;;3.13;2.93;;;24.10;26.90;;;;;;10346063;28;20253;-78
2022/05/05 15:57:37;;;;;;;3.07;2.87;;;24.10;27.10;;;;;;10355221;28;20245;-78
2022/05/05 16:02:42;;;;;;;3.10;2.80;;;24.10;27.40;;;;;;10355233;28;20222;-78
2022/05/05 16:07:46;;;;;;;3.13;2.93;;;24.00;27.30;;;;;;10355208;28;20605;-78
2022/05/05 16:12:51;;;;;;;3.43;3.13;;;24.00;27.20;;;;;;10345111;28;20658;-77
2022/05/05 16:17:54;;;;;;;3.30;3.10;;;23.90;27.00;;;;;;10349015;28;20241;-78
2022/05/05 16:22:57;;;;;;;3.90;3.60;;;23.70;27.20;;;;;;10357290;28;20223;-77
2022/05/05 16:33:23;;;;;;;3.17;2.97;;;23.50;27.70;;;;;;10355002;28;20231;-78
2022/05/05 16:38:26;;;;;;;3.80;3.10;;;23.40;27.50;;;;;;10355561;28;20263;-77
2022/05/05 16:43:31;;;;;;;3.20;3.00;;;23.30;27.50;;;;;;10357701;28;20229;-78
2022/05/05 16:48:36;;;;;;;3.10;2.90;;;23.20;27.30;;;;;;10357221;28;20238;-78
2022/05/05 16:53:40;;;;;;;3.13;2.87;;;23.10;27.40;;;;;;10356462;28;20222;-76
2022/05/05 16:58:45;;;;;;;3.20;3.00;;;23.00;27.30;;;;;;10350117;28;20234;-77
2022/05/05 17:03:48;;;;;;;3.00;2.80;;;23.00;27.30;;;;;;10339069;28;20223;-77
2022/05/05 17:08:51;;;;;;;3.30;2.93;;;22.90;27.30;;;;;;10347079;28;20233;-77
2022/05/05 17:13:56;;;;;;;3.03;2.83;;;22.80;27.20;;;;;;10358703;28;20222;-76
2022/05/05 17:18:59;;;;;;;4.03;3.03;;;22.70;27.10;;;;;;10352992;28;20231;-76
2022/05/05 17:24:02;;;;;;;3.30;3.00;;;22.60;27.20;;;;;;10346898;28;20227;-76
2022/05/05 17:29:08;;;;;;;3.17;2.97;;;22.60;27.10;;;;;;10348563;28;20235;-76
2022/05/05 17:34:11;;;;;;;3.23;3.03;;;22.50;27.40;;;;;;10357220;28;20230;-76
2022/05/05 17:39:14;;;;;;;2.97;2.77;;;22.40;27.50;;;;;;10343413;28;20603;-76
2022/05/05 17:54:57;;;;;;;3.40;3.20;;;22.30;28.00;;;;;;10368033;28;20222;-75
2022/05/05 18:00:03;;;;;;;3.37;3.10;;;22.30;28.10;;;;;;10353987;28;20230;-75
2022/05/05 18:05:07;;;;;;;3.60;3.40;;;22.20;28.10;;;;;;10357971;28;20248;-75
2022/05/05 18:10:11;;;;;;;3.60;3.30;;;22.20;28.10;;;;;;10354015;28;20241;-74
2022/05/05 18:15:17;;;;;;;3.60;3.30;;;22.20;28.30;;;;;;10353477;28;20233;-75
2022/05/05 18:20:21;;;;;;;3.50;3.30;;;22.10;28.30;;;;;;10352424;28;20304;-75
2022/05/05 18:25:24;;;;;;;3.63;3.33;;;22.10;28.50;;;;;;10351471;28;20230;-75
2022/05/05 18:30:29;;;;;;;4.00;3.70;;;22.00;28.50;;;;;;10360407;28;20632;-75
2022/05/05 18:35:32;;;;;;;3.63;3.43;;;22.00;28.70;;;;;;10350488;28;20222;-74
2022/05/05 18:40:35;;;;;;;3.90;3.70;;;21.90;28.70;;;;;;10353123;28;20272;-74
2022/05/05 18:45:40;;;;;;;3.60;3.40;;;21.80;28.70;;;;;;10350751;28;20240;-74
2022/05/05 18:50:43;;;;;;;3.80;3.60;;;21.70;28.90;;;;;;10349636;28;20258;-75
2022/05/05 18:55:47;;;;;;;4.17;3.87;;;21.70;28.80;;;;;;10349237;28;20238;-74
2022/05/05 19:00:52;;;;;;;3.80;3.60;;;21.60;29.00;;;;;;10354117;28;20226;-74
2022/05/05 19:05:56;;;;;;;4.17;3.87;;;21.50;29.10;;;;;;10352151;28;20766;-74
2022/05/05 19:10:59;;;;;;;3.80;3.60;;;21.40;29.00;;;;;;10352626;28;20222;-74
2022/05/05 19:16:04;;;;;;;4.40;4.10;;;21.30;29.00;;;;;;10351983;28;20346;-74
2022/05/05 19:21:07;;;;;;;4.60;4.20;;;21.30;29.30;;;;;;10349752;28;20222;-74
2022/05/05 19:26:10;;;;;;;4.67;4.37;;;21.20;29.30;;;;;;10351291;28;20253;-74
2022/05/05 19:31:15;;;;;;;4.30;3.90;;;21.10;29.40;;;;;;10355143;28;20223;-74
2022/05/05 19:36:18;;;;;;;5.03;4.63;;;21.10;29.70;;;;;;10359149;28;20273;-74
2022/05/05 19:41:21;;;;;;;4.97;4.57;;;21.10;29.60;;;;;;10360725;28;20852;-74
2022/05/05 20:04:09;;;;;;;4.50;4.20;;;20.70;30.50;;;;;;10356133;28;20224;-74
2022/05/05 20:09:13;;;;;;;4.90;4.60;;;20.60;30.10;;;;;;10357502;28;20234;-74
2022/05/05 20:14:17;;;;;;;5.07;4.47;;;20.50;30.30;;;;;;10358617;28;20226;-74
2022/05/05 20:19:20;;;;;;;4.57;4.27;;;20.40;30.60;;;;;;10354227;28;20321;-75
2022/05/05 20:24:24;;;;;;;4.77;4.40;;;20.30;30.50;;;;;;10354697;28;20244;-75
2022/05/05 20:29:29;;;;;;;4.67;4.37;;;20.20;30.60;;;;;;10354607;28;20267;-74
2022/05/05 20:34:32;;;;;;;5.17;4.77;;;20.10;31.70;;;;;;10347014;28;20230;-74
2022/05/05 20:39:36;;;;;;;4.83;4.47;;;20.00;30.80;;;;;;10350338;28;20228;-74
2022/05/05 20:44:40;;;;;;;4.50;4.20;;;19.90;30.90;;;;;;10355102;28;20230;-74
2022/05/05 20:49:43;;;;;;;4.93;4.63;;;19.80;31.40;;;;;;10358378;28;20226;-74
2022/05/05 20:54:47;;;;;;;4.73;4.43;;;19.70;31.20;;;;;;10357838;28;20252;-74
2022/05/05 20:59:51;;;;;;;4.63;4.33;;;19.70;31.40;;;;;;10356156;28;20214;-74
2022/05/05 21:04:54;;;;;;;5.00;4.60;;;19.60;31.90;;;;;;10357347;28;20583;-74
2022/05/05 21:09:58;;;;;;;4.43;4.13;;;19.50;31.70;;;;;;10357895;28;20226;-74
2022/05/05 21:15:03;;;;;;;4.73;4.43;;;19.50;31.70;;;;;;10359817;28;20234;-76
2022/05/05 21:25:34;;;;;;;5.37;4.97;;;19.40;32.20;;;;;;10356413;28;20241;-75
2022/05/05 21:30:40;;;;;;;5.73;5.27;;;19.40;32.10;;;;;;10356801;28;20499;-75
2022/05/05 21:35:43;;;;;;;5.23;4.93;;;19.30;32.60;;;;;;10354759;28;20229;-74
2022/05/05 21:40:50;;;;;;;5.37;4.97;;;19.20;32.20;;;;;;10357113;28;20228;-74
2022/05/05 21:45:56;;;;;;;5.40;5.00;;;19.10;32.20;;;;;;10357430;28;20656;-76
2022/05/05 21:51:00;;;;;;;5.90;5.50;;;19.00;32.80;;;;;;10354699;28;20230;-74
2022/05/05 21:56:03;;;;;;;5.13;4.73;;;19.00;32.40;;;;;;10354929;28;20222;-74
2022/05/05 22:01:08;;;;;;;6.40;5.03;;;19.00;32.50;;;;;;10355736;28;20236;-74
2022/05/05 22:06:11;;;;;;;5.47;5.07;;;18.90;33.00;;;;;;10355804;28;20591;-74
2022/05/05 22:11:14;;;;;;;5.60;5.20;;;18.90;32.70;;;;;;10355177;28;20319;-74
2022/05/05 22:16:19;;;;;;;5.53;5.10;;;18.90;32.80;;;;;;10355273;28;20218;-75
2022/05/05 22:21:22;;;;;;;5.80;5.40;;;18.80;33.10;;;;;;10353537;28;20317;-74
2022/05/05 22:26:26;;;;;;;5.30;4.90;;;18.80;32.80;;;;;;10353488;28;20339;-75
2022/05/05 22:31:33;;;;;;;5.50;5.10;;;18.80;32.80;;;;;;10352690;28;20238;-74
2022/05/05 22:36:36;;;;;;;5.93;5.53;;;18.80;33.40;;;;;;10352832;28;20283;-75
2022/05/05 22:41:51;;;;;;;5.83;5.43;;;18.70;32.90;;;;;;10355003;28;20226;-74
2022/05/05 22:46:56;;;;;;;5.97;5.47;;;18.70;33.00;;;;;;10354955;28;20697;-74
2022/05/05 22:51:59;;;;;;;6.60;5.87;;;18.60;33.30;;;;;;10355773;28;20238;-74
2022/05/05 22:57:02;;;;;;;6.53;6.03;;;18.60;33.10;;;;;;10355511;28;20225;-74
2022/05/05 23:02:07;;;;;;;6.40;5.90;;;18.50;33.10;;;;;;10353517;28;20222;-74
2022/05/05 23:07:11;;;;;;;7.27;6.10;;;18.50;33.60;;;;;;10355626;28;20218;-74
2022/05/05 23:12:14;;;;;;;6.30;5.90;;;18.40;33.30;;;;;;10356031;28;20238;-74
2022/05/05 23:17:19;;;;;;;6.23;5.73;;;18.30;33.30;;;;;;10354934;28;20234;-74
2022/05/05 23:22:22;;;;;;;6.37;5.90;;;18.30;33.70;;;;;;10356782;28;20234;-74
2022/05/05 23:27:25;;;;;;;5.80;5.40;;;18.20;33.50;;;;;;10353651;28;20234;-74
2022/05/05 23:32:30;;;;;;;6.13;5.73;;;18.20;33.60;;;;;;10356848;28;20603;-74
2022/05/05 23:37:33;;;;;;;6.07;5.40;;;18.10;33.90;;;;;;10356321;28;20876;-74
2022/05/05 23:42:38;;;;;;;6.37;5.77;;;18.10;33.80;;;;;;10353889;28;20242;-74
2022/05/05 23:47:43;;;;;;;5.93;5.53;;;18.00;34.30;;;;;;10354588;28;20226;-74
2022/05/05 23:52:46;;;;;;;6.20;5.80;;;18.00;34.30;;;;;;10353789;28;20725;-74
2022/05/05 23:57:49;;;;;;;6.10;5.70;;;18.00;34.00;;;;;;10351748;28;20225;-74
